Time;durP1;ratioP1;P1;durP2;ratioP2;P2;SDS_P1;SDS_P2;PMS_P1;PMS_P2;Temp;Humidity;BMP_temperature;BMP_pressure;BME280_temperature;BME280_humidity;BME280_pressure;Samples;Min_cycle;Max_cycle;Signal;HPM_P1;HPM_P2
2022/09/01 05:59:52;;;;;;;2.20;1.33;;;;;;;;;;10545373;27;20734;-82
2022/09/01 06:04:55;;;;;;;1.90;1.27;;;;;;;;;;10543679;28;20028;-81
2022/09/01 06:09:56;;;;;;;3.50;1.33;;;;;;;;;;10544208;28;20048;-83
2022/09/01 06:14:57;;;;;;;4.07;1.40;;;;;;;;;;10544168;28;20136;-81
2022/09/01 06:19:58;;;;;;;3.50;1.42;;;;;;;;;;10543350;28;20040;-81
2022/09/01 06:24:59;;;;;;;1.90;1.33;;;;;;;;;;10543947;28;20016;-81
2022/09/01 06:30:01;;;;;;;3.38;1.27;;;;;;;;;;10543963;28;20032;-81
2022/09/01 06:35:02;;;;;;;3.40;1.40;;;;;;;;;;10544394;28;20097;-81
2022/09/01 06:40:04;;;;;;;4.38;1.20;;;;;;;;;;10557244;28;20098;-79
2022/09/01 06:45:09;;;;;;;2.40;1.10;;;;;;;;;;10557155;28;20025;-80
2022/09/01 06:50:14;;;;;;;3.35;1.20;;;;;;;;;;10560510;28;20093;-81
2022/09/01 06:55:15;;;;;;;2.95;1.88;;;;;;;;;;10554835;28;20040;-81
2022/09/01 07:00:19;;;;;;;5.70;1.80;;;;;;;;;;10536444;28;20127;-83
2022/09/01 07:05:23;;;;;;;3.00;0.93;;;;;;;;;;10538435;28;20046;-81
2022/09/01 07:10:25;;;;;;;4.07;1.33;;;;;;;;;;10515598;28;20028;-81
2022/09/01 07:15:30;;;;;;;1.95;1.10;;;;;;;;;;10515661;28;20078;-80
2022/09/01 07:20:38;;;;;;;3.42;1.15;;;;;;;;;;10522883;28;20548;-85
2022/09/01 07:42:25;;;;;;;2.10;1.30;;;;;;;;;;10550027;28;20040;-84
2022/09/01 07:47:28;;;;;;;2.45;1.40;;;;;;;;;;10528830;28;20128;-84
2022/09/01 07:52:48;;;;;;;4.05;1.90;;;;;;;;;;10518192;28;20113;-84
2022/09/01 07:58:40;;;;;;;4.78;1.92;;;;;;;;;;10516137;28;20028;-84
2022/09/01 08:15:21;;;;;;;3.88;1.45;;;;;;;;;;10518905;28;20032;-84
2022/09/01 08:21:22;;;;;;;3.15;1.40;;;;;;;;;;10450247;28;20059;-83
2022/09/01 08:26:26;;;;;;;3.90;1.70;;;;;;;;;;10464345;22;20138;-83
2022/09/01 08:43:30;;;;;;;4.70;1.25;;;;;;;;;;10433962;28;19909;-86
2022/09/01 09:00:17;;;;;;;4.60;3.03;;;;;;;;;;10525531;28;20028;-86
2022/09/01 09:11:11;;;;;;;4.78;1.40;;;;;;;;;;10525137;28;20013;-85
2022/09/01 09:21:56;;;;;;;4.30;1.40;;;;;;;;;;10520288;28;20021;-84
2022/09/01 09:27:27;;;;;;;1.90;1.00;;;;;;;;;;10503057;28;20032;-86
2022/09/01 09:38:21;;;;;;;4.45;1.05;;;;;;;;;;10526043;28;20027;-84
2022/09/01 09:59:18;;;;;;;3.35;1.30;;;;;;;;;;10472601;28;20491;-85
2022/09/01 15:39:46;;;;;;;3.38;1.42;;;;;;;;;;10367863;28;20497;-84
2022/09/01 16:17:54;;;;;;;3.72;1.30;;;;;;;;;;12142745;23;20381;-83
2022/09/01 16:23:21;;;;;;;2.72;1.50;;;;;;;;;;10367244;28;20046;-81
2022/09/01 16:28:34;;;;;;;2.33;1.20;;;;;;;;;;10369502;28;20044;-80
2022/09/01 16:33:55;;;;;;;4.95;1.80;;;;;;;;;;10384779;28;20037;-80
2022/09/01 16:39:11;;;;;;;3.97;1.70;;;;;;;;;;10362940;28;20046;-81
2022/09/01 16:44:27;;;;;;;3.55;1.92;;;;;;;;;;10361609;28;20060;-81
2022/09/01 16:49:28;;;;;;;1.58;1.13;;;;;;;;;;10364541;28;20142;-81
2022/09/01 16:54:46;;;;;;;2.83;1.38;;;;;;;;;;10364290;28;20127;-80
2022/09/01 16:59:50;;;;;;;4.85;1.15;;;;;;;;;;10362452;28;20412;-81
2022/09/01 17:04:57;;;;;;;5.32;1.10;;;;;;;;;;10378476;28;20029;-81
2022/09/01 17:10:17;;;;;;;3.33;1.67;;;;;;;;;;10363856;28;20084;-81
2022/09/01 17:15:22;;;;;;;3.78;1.50;;;;;;;;;;10365045;28;20034;-81
2022/09/01 17:20:27;;;;;;;2.38;1.60;;;;;;;;;;10373164;28;20085;-81
2022/09/01 17:25:34;;;;;;;4.95;1.30;;;;;;;;;;10412486;28;20029;-80
2022/09/01 17:30:59;;;;;;;3.20;1.40;;;;;;;;;;10373117;28;20042;-82
2022/09/01 17:36:03;;;;;;;2.53;1.20;;;;;;;;;;10359675;28;20030;-81
2022/09/01 17:41:23;;;;;;;2.90;1.33;;;;;;;;;;10364315;28;20099;-82
2022/09/01 17:46:40;;;;;;;1.52;1.15;;;;;;;;;;10362220;28;20460;-80
2022/09/01 17:51:54;;;;;;;3.50;1.10;;;;;;;;;;10360789;28;20467;-81
2022/09/01 17:57:14;;;;;;;3.35;1.30;;;;;;;;;;10360713;28;20061;-80
2022/09/01 18:02:45;;;;;;;2.53;1.25;;;;;;;;;;10361796;28;20044;-81
2022/09/01 18:08:01;;;;;;;2.50;1.30;;;;;;;;;;10363254;28;20061;-81
2022/09/01 18:13:04;;;;;;;2.78;1.30;;;;;;;;;;10382975;28;20033;-81
2022/09/01 18:18:10;;;;;;;2.10;1.10;;;;;;;;;;10361566;28;20050;-81
2022/09/01 18:23:12;;;;;;;3.70;1.40;;;;;;;;;;10362642;28;20033;-81
2022/09/01 18:28:15;;;;;;;2.47;1.25;;;;;;;;;;10383918;28;20369;-82
2022/09/01 18:33:32;;;;;;;2.90;1.15;;;;;;;;;;10364092;28;20026;-82
2022/09/01 18:38:52;;;;;;;2.83;1.20;;;;;;;;;;10359338;28;20030;-81
2022/09/01 18:43:56;;;;;;;2.00;1.33;;;;;;;;;;10360716;28;20481;-81
2022/09/01 18:49:21;;;;;;;2.63;1.20;;;;;;;;;;10359383;28;20040;-81
2022/09/01 18:54:32;;;;;;;3.60;1.20;;;;;;;;;;10359741;28;20034;-81
2022/09/01 18:59:52;;;;;;;1.95;1.27;;;;;;;;;;10368614;28;20412;-81
2022/09/01 19:04:58;;;;;;;2.40;1.17;;;;;;;;;;10379250;28;20102;-79
2022/09/01 19:10:17;;;;;;;3.13;1.48;;;;;;;;;;10406951;28;20040;-80
2022/09/01 19:15:39;;;;;;;4.03;1.40;;;;;;;;;;10397816;28;20044;-81
2022/09/01 19:20:47;;;;;;;2.88;1.20;;;;;;;;;;10376890;28;20083;-79
